Salt Lake City, Utah
Traffic Map
Current Weather Conditions
Salt Lake City, Utah
Broken Clouds
Broken Clouds
60°
Feels Like: 60°
Wind Chill: 60° Ceiling: 14000
Heat Index: 60° Visibility: 10mi
Dew Point: 55° Wind: 0mph
Humidity: 83% Direction: ° ()
Pressure: 30.17in Gusts: 0mph
Raw Report DataKSLC 270753Z 00000KT 10SM BKN140 16/13 A3017 RMK AO2 SLP172 T01560128 $
Traffic Incident Summary
Active as of:
Severity:
Category:
InformationThere was an issue retrieving the traffic information for this location. Please try a different location or try again shortly.
Advertisements
Track Severe Weather on mobile